createdAt,value
2023-08-26T00:00:38.091Z,20.25
2023-08-26T00:03:05.891Z,20.21
2023-08-26T00:05:32.513Z,20.18
2023-08-26T00:07:59.199Z,20.10
2023-08-26T00:10:26.119Z,20.08
2023-08-26T00:12:53.038Z,20.04
2023-08-26T00:15:19.902Z,19.96
2023-08-26T00:17:46.490Z,19.96
2023-08-26T00:20:13.181Z,19.90
2023-08-26T00:22:40.003Z,19.86
2023-08-26T00:25:07.267Z,19.80
2023-08-26T00:27:33.897Z,19.73
2023-08-26T00:30:00.422Z,19.68
2023-08-26T00:32:27.153Z,19.61
2023-08-26T00:34:53.715Z,19.61
2023-08-26T00:37:20.316Z,19.56
2023-08-26T00:39:46.834Z,19.55
2023-08-26T00:42:13.419Z,19.53
2023-08-26T00:44:39.969Z,19.48
2023-08-26T00:47:06.703Z,19.40
2023-08-26T00:49:33.482Z,19.34
2023-08-26T00:52:00.371Z,19.30
2023-08-26T00:54:28.883Z,19.28
2023-08-26T00:56:56.037Z,19.22
2023-08-26T00:59:22.636Z,19.20
2023-08-26T01:01:49.420Z,19.12
2023-08-26T01:04:17.516Z,19.09
2023-08-26T01:06:46.822Z,19.08
2023-08-26T01:09:13.654Z,19.03
2023-08-26T01:11:51.257Z,18.99
2023-08-26T01:14:33.146Z,19.01
2023-08-26T01:17:01.027Z,19.02
2023-08-26T01:19:41.480Z,19.01
2023-08-26T01:22:09.562Z,19.00
2023-08-26T01:24:37.989Z,19.00
2023-08-26T01:27:04.815Z,19.00
2023-08-26T01:29:31.412Z,19.00
2023-08-26T01:32:18.315Z,19.00
2023-08-26T01:34:50.705Z,18.99
2023-08-26T01:37:19.937Z,18.97
2023-08-26T01:39:48.853Z,18.94
2023-08-26T01:42:17.590Z,18.94
2023-08-26T01:44:47.861Z,18.93
2023-08-26T01:47:14.426Z,18.92
2023-08-26T01:49:41.048Z,18.88
2023-08-26T01:52:07.712Z,18.83
2023-08-26T01:54:34.429Z,18.79
2023-08-26T01:57:00.975Z,18.76
2023-08-26T01:59:27.509Z,18.76
2023-08-26T02:01:54.083Z,18.72
2023-08-26T02:04:21.203Z,18.62
2023-08-26T02:06:47.751Z,18.65
2023-08-26T02:09:14.265Z,18.62
2023-08-26T02:11:40.833Z,18.61
2023-08-26T02:14:07.408Z,18.61
2023-08-26T02:16:33.964Z,18.62
2023-08-26T02:19:00.517Z,18.52
2023-08-26T02:21:27.098Z,18.50
2023-08-26T02:23:53.682Z,18.50
2023-08-26T02:26:20.208Z,18.45
2023-08-26T02:28:46.761Z,18.43
2023-08-26T02:31:13.401Z,18.42
2023-08-26T02:33:40.059Z,18.43
2023-08-26T02:36:07.429Z,18.39
2023-08-26T02:38:33.954Z,18.35
2023-08-26T02:41:01.189Z,18.37
2023-08-26T02:43:27.928Z,18.36
2023-08-26T02:45:55.634Z,18.32
2023-08-26T02:48:26.912Z,18.29
2023-08-26T02:50:58.060Z,18.25
2023-08-26T02:53:29.023Z,18.24
2023-08-26T02:55:56.670Z,18.21
2023-08-26T02:58:23.704Z,18.18
2023-08-26T03:00:50.426Z,18.15
2023-08-26T03:03:17.073Z,18.14
2023-08-26T03:05:47.242Z,18.11
2023-08-26T03:08:14.033Z,18.12
2023-08-26T03:10:40.709Z,18.09
2023-08-26T03:13:11.301Z,18.06
2023-08-26T03:15:37.949Z,18.03
2023-08-26T03:18:04.962Z,18.00
2023-08-26T03:20:32.783Z,17.96
2023-08-26T03:22:59.510Z,17.96
2023-08-26T03:25:26.216Z,17.98
2023-08-26T03:27:52.778Z,17.93
2023-08-26T03:30:19.493Z,17.93
2023-08-26T03:32:46.113Z,17.89
2023-08-26T03:35:12.815Z,17.89
2023-08-26T03:37:39.374Z,17.88
2023-08-26T03:40:09.840Z,17.83
2023-08-26T03:42:36.615Z,17.81
2023-08-26T03:45:05.555Z,17.83
2023-08-26T03:47:33.544Z,17.82
2023-08-26T03:50:01.132Z,17.82
2023-08-26T03:52:27.679Z,17.82
2023-08-26T03:54:54.384Z,17.82
2023-08-26T03:57:23.522Z,17.80
2023-08-26T03:59:50.091Z,17.75
2023-08-26T04:02:16.805Z,17.73
2023-08-26T04:04:43.521Z,17.72
2023-08-26T04:07:10.813Z,17.75
2023-08-26T04:09:37.416Z,17.77
2023-08-26T04:12:04.329Z,17.81
2023-08-26T04:14:30.898Z,17.83
2023-08-26T04:16:57.530Z,17.87
2023-08-26T04:19:24.763Z,17.90
2023-08-26T04:21:51.256Z,18.00
2023-08-26T04:24:17.714Z,18.02
2023-08-26T04:26:47.015Z,18.13
2023-08-26T04:29:13.623Z,18.20
2023-08-26T04:31:40.210Z,18.28
2023-08-26T04:34:06.753Z,18.37
2023-08-26T04:36:33.292Z,18.52
2023-08-26T04:38:59.825Z,18.67
2023-08-26T04:41:26.356Z,18.87
2023-08-26T04:43:54.287Z,19.05
2023-08-26T04:46:24.713Z,19.24
2023-08-26T04:48:51.652Z,19.45
2023-08-26T04:51:18.144Z,19.69
2023-08-26T04:53:47.780Z,19.93
2023-08-26T04:56:14.316Z,20.16
2023-08-26T04:58:40.916Z,20.34
2023-08-26T05:01:07.669Z,20.60
2023-08-26T05:03:34.389Z,20.81
2023-08-26T05:06:01.048Z,20.97
2023-08-26T05:08:27.599Z,21.02
2023-08-26T05:10:54.154Z,21.07
2023-08-26T05:13:20.877Z,21.00
2023-08-26T05:15:47.993Z,20.97
2023-08-26T05:18:16.566Z,20.96
2023-08-26T05:20:46.483Z,20.93
2023-08-26T05:23:13.686Z,20.89
2023-08-26T05:25:40.709Z,20.95
2023-08-26T05:28:07.478Z,21.00
2023-08-26T05:30:34.864Z,21.13
2023-08-26T05:33:02.621Z,21.34
2023-08-26T05:35:29.378Z,21.65
2023-08-26T05:37:56.080Z,22.11
2023-08-26T05:40:27.898Z,22.45
2023-08-26T05:42:58.372Z,22.85
2023-08-26T05:45:26.014Z,23.06
2023-08-26T05:47:53.574Z,23.18
2023-08-26T05:50:20.205Z,23.34
2023-08-26T05:52:46.932Z,23.58
2023-08-26T05:55:13.583Z,23.66
2023-08-26T05:57:42.387Z,23.58
2023-08-26T06:00:09.830Z,23.50
2023-08-26T06:02:36.445Z,23.49
2023-08-26T06:05:03.999Z,23.54
2023-08-26T06:07:30.551Z,23.69
2023-08-26T06:09:57.061Z,23.81
2023-08-26T06:12:23.720Z,23.89
2023-08-26T06:14:50.254Z,24.06
2023-08-26T06:17:16.732Z,24.20
2023-08-26T06:19:43.816Z,24.41
2023-08-26T06:22:10.375Z,24.66
2023-08-26T06:24:36.841Z,24.97
2023-08-26T06:27:03.941Z,25.40
2023-08-26T06:29:30.529Z,25.56
2023-08-26T06:31:57.034Z,25.36
2023-08-26T06:34:23.541Z,25.11
2023-08-26T06:36:50.126Z,24.91
2023-08-26T06:39:16.676Z,24.84
2023-08-26T06:44:23.728Z,24.51
2023-08-26T06:46:50.202Z,24.32
2023-08-26T06:49:16.749Z,24.16
2023-08-26T06:51:43.342Z,23.98
2023-08-26T06:54:09.777Z,23.89
2023-08-26T06:56:36.965Z,23.83
2023-08-26T06:59:04.661Z,23.83
2023-08-26T07:01:32.465Z,23.90
2023-08-26T07:04:05.744Z,23.95
2023-08-26T07:06:33.061Z,23.97
2023-08-26T07:08:59.857Z,24.05
2023-08-26T07:11:26.995Z,24.11
2023-08-26T07:13:53.553Z,24.17
2023-08-26T07:16:20.954Z,24.34
2023-08-26T07:18:47.667Z,24.57
2023-08-26T07:21:16.087Z,24.77
2023-08-26T07:23:42.616Z,24.90
2023-08-26T07:26:09.263Z,25.06
2023-08-26T07:28:35.927Z,25.19
2023-08-26T07:31:04.504Z,25.28
2023-08-26T07:33:31.788Z,25.43
2023-08-26T07:36:07.469Z,25.60
2023-08-26T07:38:38.249Z,25.67
2023-08-26T07:41:05.126Z,25.83
2023-08-26T07:43:31.918Z,26.00
2023-08-26T07:50:57.263Z,26.20
2023-08-26T07:53:24.003Z,26.29
2023-08-26T07:55:50.479Z,26.25
2023-08-26T07:58:17.077Z,26.14
2023-08-26T08:00:43.745Z,25.98
2023-08-26T08:03:10.553Z,25.79
2023-08-26T08:05:37.197Z,25.73
2023-08-26T08:08:03.933Z,25.61
2023-08-26T08:10:30.507Z,25.53
2023-08-26T08:12:57.360Z,25.51
2023-08-26T08:15:24.143Z,25.54
2023-08-26T08:17:50.851Z,25.70
2023-08-26T08:20:17.618Z,25.87
2023-08-26T08:22:44.588Z,25.96
2023-08-26T08:25:12.008Z,25.96
2023-08-26T08:27:40.308Z,25.87
2023-08-26T08:30:07.689Z,25.91
2023-08-26T08:32:34.554Z,25.89
2023-08-26T08:35:03.597Z,25.88
2023-08-26T08:37:30.287Z,25.94
2023-08-26T08:39:57.065Z,26.00
2023-08-26T08:42:23.722Z,25.99
2023-08-26T08:45:27.735Z,25.98
2023-08-26T08:47:55.271Z,25.81
2023-08-26T08:50:22.494Z,25.70
2023-08-26T08:52:52.469Z,25.57
2023-08-26T08:55:19.345Z,25.47
2023-08-26T08:57:47.646Z,25.43
2023-08-26T09:00:14.917Z,25.23
2023-08-26T09:02:44.194Z,25.19
2023-08-26T09:05:10.881Z,25.16
2023-08-26T09:07:39.461Z,25.20
2023-08-26T09:10:08.785Z,25.23
2023-08-26T09:12:35.430Z,25.15
2023-08-26T09:15:02.432Z,25.03
2023-08-26T09:17:29.457Z,24.97
2023-08-26T09:19:59.408Z,24.86
2023-08-26T09:22:27.623Z,24.77
2023-08-26T09:24:56.219Z,24.66
2023-08-26T09:27:23.136Z,24.59
2023-08-26T09:29:50.168Z,24.57
2023-08-26T09:32:16.828Z,24.63
2023-08-26T09:34:43.349Z,24.77
2023-08-26T09:37:09.961Z,24.96
2023-08-26T09:39:47.335Z,25.36
2023-08-26T09:42:14.272Z,25.61
2023-08-26T09:44:41.698Z,25.83
2023-08-26T09:47:13.035Z,25.95
2023-08-26T09:49:39.803Z,25.99
2023-08-26T09:52:06.283Z,25.97
2023-08-26T09:54:32.867Z,26.09
2023-08-26T09:56:59.551Z,26.25
2023-08-26T09:59:26.093Z,26.36
2023-08-26T10:01:52.968Z,26.57
2023-08-26T10:04:27.313Z,26.58
2023-08-26T10:06:59.401Z,26.29
2023-08-26T10:09:51.242Z,26.01
2023-08-26T10:12:45.078Z,25.79
2023-08-26T10:15:15.176Z,25.65
2023-08-26T10:17:45.844Z,25.51
2023-08-26T10:20:13.292Z,25.65
2023-08-26T10:22:40.168Z,26.00
2023-08-26T10:25:09.310Z,26.10
2023-08-26T10:27:37.453Z,26.11
2023-08-26T10:33:07.676Z,26.35
2023-08-26T10:35:34.346Z,26.54
2023-08-26T10:38:15.952Z,26.90
2023-08-26T10:40:42.882Z,27.06
2023-08-26T10:43:12.873Z,27.32
2023-08-26T10:45:58.078Z,27.52
2023-08-26T10:48:26.308Z,27.50
2023-08-26T10:51:00.917Z,27.53
2023-08-26T10:53:28.611Z,27.46
2023-08-26T10:56:14.608Z,27.26
2023-08-26T10:58:47.090Z,27.39
2023-08-26T11:01:14.457Z,27.68
2023-08-26T11:03:41.268Z,27.89
2023-08-26T11:06:11.324Z,28.04
2023-08-26T11:08:41.443Z,28.10
2023-08-26T11:11:13.971Z,28.21
2023-08-26T11:13:42.428Z,28.26
2023-08-26T11:16:10.232Z,28.22
2023-08-26T11:18:37.397Z,27.99
2023-08-26T11:21:06.122Z,27.85
2023-08-26T11:23:36.019Z,27.81
2023-08-26T11:26:07.173Z,27.75
2023-08-26T11:28:33.870Z,27.67
2023-08-26T11:31:01.165Z,27.59
2023-08-26T11:33:30.245Z,27.37
2023-08-26T11:36:08.269Z,27.18
2023-08-26T11:38:36.249Z,26.95
2023-08-26T11:41:09.378Z,26.84
2023-08-26T11:43:36.834Z,26.73
2023-08-26T11:46:06.001Z,26.71
2023-08-26T11:48:41.752Z,26.83
2023-08-26T11:51:08.342Z,26.90
2023-08-26T11:53:38.109Z,27.06
2023-08-26T11:56:05.569Z,27.10
2023-08-26T11:58:33.296Z,27.11
2023-08-26T12:00:59.964Z,27.23
2023-08-26T12:03:31.179Z,27.21
2023-08-26T12:05:57.840Z,27.21
2023-08-26T12:08:24.505Z,27.34
2023-08-26T12:10:52.405Z,27.50
2023-08-26T12:13:19.648Z,27.64
2023-08-26T12:15:46.971Z,27.81
2023-08-26T12:18:14.311Z,27.92
2023-08-26T12:20:47.924Z,27.99
2023-08-26T12:23:20.553Z,28.07
2023-08-26T12:25:47.164Z,28.01
2023-08-26T12:28:23.028Z,28.00
2023-08-26T12:30:49.628Z,27.96
2023-08-26T12:33:25.341Z,27.93
2023-08-26T12:35:53.629Z,27.90
2023-08-26T12:38:20.644Z,27.92
2023-08-26T12:40:50.620Z,27.97
2023-08-26T12:43:19.764Z,28.19
2023-08-26T12:45:47.136Z,28.50
2023-08-26T12:48:17.033Z,28.89
2023-08-26T12:50:49.419Z,28.99
2023-08-26T12:53:16.065Z,29.03
2023-08-26T12:55:42.845Z,28.96
2023-08-26T12:58:09.344Z,28.92
2023-08-26T13:00:35.901Z,28.84
2023-08-26T13:03:02.476Z,28.77
2023-08-26T13:05:29.059Z,28.57
2023-08-26T13:07:55.936Z,28.51
2023-08-26T13:10:22.670Z,28.47
2023-08-26T13:12:49.175Z,28.47
2023-08-26T13:15:15.825Z,28.58
2023-08-26T13:17:42.398Z,28.82
2023-08-26T13:20:11.041Z,29.01
2023-08-26T13:22:37.739Z,29.01
2023-08-26T13:25:05.053Z,29.01
2023-08-26T13:27:31.788Z,29.03
2023-08-26T13:29:58.262Z,29.01
2023-08-26T13:32:24.862Z,28.88
2023-08-26T13:34:51.415Z,28.81
2023-08-26T13:37:18.019Z,28.58
2023-08-26T13:39:44.857Z,28.64
2023-08-26T13:42:11.579Z,28.64
2023-08-26T13:44:38.187Z,28.54
2023-08-26T13:47:05.143Z,28.29
2023-08-26T13:49:32.561Z,27.95
2023-08-26T13:51:59.240Z,27.62
2023-08-26T13:54:25.752Z,27.21
2023-08-26T13:56:52.282Z,26.96
2023-08-26T13:59:19.122Z,26.50
2023-08-26T14:01:45.684Z,25.22
2023-08-26T14:04:12.216Z,23.07
2023-08-26T14:06:39.300Z,21.11
2023-08-26T14:09:05.901Z,20.28
2023-08-26T14:11:32.480Z,19.81
2023-08-26T14:13:59.055Z,19.45
2023-08-26T14:16:25.776Z,19.31
2023-08-26T14:18:52.323Z,19.43
2023-08-26T14:21:18.929Z,19.81
2023-08-26T14:23:47.565Z,20.21
2023-08-26T14:26:15.343Z,20.85
2023-08-26T14:28:41.815Z,21.35
2023-08-26T14:31:08.526Z,21.78
2023-08-26T14:33:36.616Z,21.99
2023-08-26T14:36:04.769Z,22.03
2023-08-26T14:38:31.710Z,22.00
2023-08-26T14:40:58.339Z,21.99
2023-08-26T14:43:24.891Z,22.03
2023-08-26T14:48:34.025Z,21.91
2023-08-26T14:51:01.048Z,21.87
2023-08-26T14:53:27.581Z,21.79
2023-08-26T14:56:03.622Z,21.60
2023-08-26T14:58:31.066Z,21.62
2023-08-26T15:00:57.661Z,21.69
2023-08-26T15:03:24.456Z,21.75
2023-08-26T15:05:58.129Z,21.75
2023-08-26T15:08:25.511Z,21.73
2023-08-26T15:10:52.813Z,21.69
2023-08-26T15:13:21.996Z,21.65
2023-08-26T15:15:48.893Z,21.67
2023-08-26T15:18:17.977Z,21.67
2023-08-26T15:20:46.140Z,21.72
2023-08-26T15:23:13.709Z,21.80
2023-08-26T15:25:41.179Z,21.89
2023-08-26T15:28:08.623Z,21.94
2023-08-26T15:30:35.248Z,22.00
2023-08-26T15:33:02.187Z,22.07
2023-08-26T15:35:29.668Z,22.14
2023-08-26T15:37:57.303Z,22.24
2023-08-26T15:40:24.474Z,22.26
2023-08-26T15:42:55.224Z,22.25
2023-08-26T15:45:22.104Z,22.23
2023-08-26T15:47:48.674Z,22.24
2023-08-26T15:50:15.422Z,22.26
2023-08-26T15:52:41.941Z,22.23
2023-08-26T15:55:08.548Z,22.23
2023-08-26T15:57:35.068Z,22.22
2023-08-26T16:00:01.554Z,22.22
2023-08-26T16:02:28.078Z,22.26
2023-08-26T16:04:54.671Z,22.27
2023-08-26T16:07:21.176Z,22.25
2023-08-26T16:09:47.667Z,22.22
2023-08-26T16:12:17.568Z,22.18
2023-08-26T16:14:44.822Z,22.18
2023-08-26T16:17:11.755Z,22.18
2023-08-26T16:19:38.303Z,22.23
2023-08-26T16:22:04.867Z,22.21
2023-08-26T16:24:31.438Z,22.20
2023-08-26T16:26:57.975Z,22.20
2023-08-26T16:29:24.498Z,22.16
2023-08-26T16:31:51.062Z,22.12
2023-08-26T16:34:17.924Z,22.09
2023-08-26T16:36:44.426Z,22.11
2023-08-26T16:39:13.188Z,22.08
2023-08-26T16:41:40.764Z,22.00
2023-08-26T16:44:08.819Z,21.94
2023-08-26T16:46:35.501Z,21.88
2023-08-26T16:49:02.124Z,21.84
2023-08-26T16:51:28.748Z,21.79
2023-08-26T16:53:55.382Z,21.81
2023-08-26T16:56:22.186Z,21.77
2023-08-26T16:58:48.674Z,21.76
2023-08-26T17:01:15.296Z,21.78
2023-08-26T17:03:41.762Z,21.81
2023-08-26T17:06:09.660Z,21.80
2023-08-26T17:08:36.512Z,21.78
2023-08-26T17:11:04.308Z,21.72
2023-08-26T17:13:31.438Z,21.74
2023-08-26T17:15:58.776Z,21.72
2023-08-26T17:18:25.392Z,21.69
2023-08-26T17:20:52.125Z,21.68
2023-08-26T17:23:18.671Z,21.62
2023-08-26T17:25:45.264Z,21.58
2023-08-26T17:28:11.815Z,21.49
2023-08-26T17:30:38.707Z,21.43
2023-08-26T17:33:05.992Z,21.33
2023-08-26T17:35:35.837Z,21.24
2023-08-26T17:38:04.023Z,21.13
2023-08-26T17:40:30.875Z,21.03
2023-08-26T17:42:57.667Z,20.95
2023-08-26T17:45:27.628Z,20.91
2023-08-26T17:47:54.205Z,20.80
2023-08-26T17:50:20.779Z,20.78
2023-08-26T17:52:47.301Z,20.73
2023-08-26T17:55:13.917Z,20.65
2023-08-26T17:57:40.553Z,20.61
2023-08-26T18:00:07.872Z,20.57
2023-08-26T18:02:34.393Z,20.53
2023-08-26T18:05:00.995Z,20.49
2023-08-26T18:07:27.590Z,20.45
2023-08-26T18:09:54.174Z,20.44
2023-08-26T18:12:20.763Z,20.40
2023-08-26T18:14:47.298Z,20.39
2023-08-26T18:17:14.074Z,20.37
2023-08-26T18:19:40.663Z,20.32
2023-08-26T18:22:07.247Z,20.35
2023-08-26T18:24:34.140Z,20.33
2023-08-26T18:27:00.762Z,20.25
2023-08-26T18:29:37.897Z,20.21
2023-08-26T18:32:04.862Z,20.17
2023-08-26T18:34:31.446Z,20.11
2023-08-26T18:36:58.089Z,20.09
2023-08-26T18:39:24.681Z,20.05
2023-08-26T18:41:51.255Z,20.03
2023-08-26T18:44:17.813Z,19.99
2023-08-26T18:46:45.994Z,19.93
2023-08-26T18:49:12.655Z,19.92
2023-08-26T18:51:39.253Z,19.91
2023-08-26T18:54:05.829Z,19.89
2023-08-26T18:56:32.387Z,19.89
2023-08-26T18:58:58.894Z,19.92
2023-08-26T19:01:25.428Z,19.90
2023-08-26T19:03:52.803Z,19.90
2023-08-26T19:06:19.367Z,19.83
2023-08-26T19:08:45.975Z,19.86
2023-08-26T19:11:12.591Z,19.86
2023-08-26T19:13:39.071Z,19.78
2023-08-26T19:16:05.644Z,19.86
2023-08-26T19:18:32.134Z,19.87
2023-08-26T19:20:58.826Z,19.87
2023-08-26T19:23:25.504Z,19.87
2023-08-26T19:25:52.178Z,19.90
2023-08-26T19:28:18.722Z,19.88
2023-08-26T19:30:46.360Z,19.88
2023-08-26T19:33:13.001Z,19.86
2023-08-26T19:35:40.868Z,19.89
2023-08-26T19:38:07.520Z,19.89
2023-08-26T19:40:34.060Z,19.91
2023-08-26T19:43:01.311Z,19.88
2023-08-26T19:45:28.120Z,19.89
2023-08-26T19:47:54.919Z,19.84
2023-08-26T19:50:21.528Z,19.82
2023-08-26T19:52:48.480Z,19.80
2023-08-26T19:55:15.456Z,19.75
2023-08-26T19:57:42.205Z,19.75
2023-08-26T20:00:09.688Z,19.72
2023-08-26T20:02:36.412Z,19.71
2023-08-26T20:05:03.115Z,19.65
2023-08-26T20:07:29.666Z,19.64
2023-08-26T20:09:56.905Z,19.58
2023-08-26T20:12:23.820Z,19.55
2023-08-26T20:14:50.947Z,19.52
2023-08-26T20:17:17.618Z,19.51
2023-08-26T20:19:44.335Z,19.47
2023-08-26T20:22:11.173Z,19.42
2023-08-26T20:24:38.625Z,19.41
2023-08-26T20:27:05.398Z,19.39
2023-08-26T20:29:32.748Z,19.33
2023-08-26T20:32:00.597Z,19.33
2023-08-26T20:34:27.152Z,19.30
2023-08-26T20:36:54.284Z,19.23
2023-08-26T20:39:20.885Z,19.18
2023-08-26T20:41:47.632Z,19.16
2023-08-26T20:44:14.418Z,19.12
2023-08-26T20:46:40.922Z,19.08
2023-08-26T20:49:07.585Z,19.04
2023-08-26T20:51:34.069Z,19.08
2023-08-26T20:54:00.772Z,19.07
2023-08-26T20:56:30.000Z,19.09
2023-08-26T20:58:57.416Z,19.09
2023-08-26T21:01:25.470Z,19.07
2023-08-26T21:03:52.079Z,19.05
2023-08-26T21:06:18.683Z,19.05
2023-08-26T21:08:45.170Z,19.01
2023-08-26T21:11:12.134Z,18.98
2023-08-26T21:13:39.722Z,18.95
2023-08-26T21:16:07.021Z,18.94
2023-08-26T21:18:33.690Z,18.95
2023-08-26T21:21:00.624Z,18.90
2023-08-26T21:23:27.267Z,18.93
2023-08-26T21:25:54.465Z,18.96
2023-08-26T21:28:26.292Z,18.96
2023-08-26T21:30:53.908Z,18.99
2023-08-26T21:33:21.673Z,19.01
2023-08-26T21:35:49.043Z,19.03
2023-08-26T21:38:16.282Z,19.02
2023-08-26T21:40:43.643Z,19.02
2023-08-26T21:43:12.452Z,18.99
2023-08-26T21:45:40.217Z,18.94
2023-08-26T21:48:09.115Z,18.91
2023-08-26T21:50:42.906Z,18.91
2023-08-26T21:53:09.524Z,18.85
2023-08-26T21:55:36.247Z,18.78
2023-08-26T21:58:05.137Z,18.76
2023-08-26T22:00:33.007Z,18.74
2023-08-26T22:03:00.158Z,18.72
2023-08-26T22:05:32.531Z,18.68
2023-08-26T22:08:00.425Z,18.71
2023-08-26T22:10:27.296Z,18.68
2023-08-26T22:12:56.615Z,18.71
2023-08-26T22:15:24.953Z,18.72
2023-08-26T22:17:52.339Z,18.73
2023-08-26T22:20:19.125Z,18.72
2023-08-26T22:22:46.387Z,18.73
2023-08-26T22:25:13.221Z,18.72
2023-08-26T22:27:41.346Z,18.71
2023-08-26T22:30:09.387Z,18.68
2023-08-26T22:32:37.298Z,18.65
2023-08-26T22:35:04.727Z,18.65
2023-08-26T22:37:34.601Z,18.65
2023-08-26T22:40:04.362Z,18.60
2023-08-26T22:42:35.095Z,18.55
2023-08-26T22:45:02.595Z,18.59
2023-08-26T22:47:29.582Z,18.56
2023-08-26T22:49:59.019Z,18.62
2023-08-26T22:52:25.732Z,18.63
2023-08-26T22:54:52.837Z,18.61
2023-08-26T22:57:19.445Z,18.60
2023-08-26T22:59:46.235Z,18.59
2023-08-26T23:02:13.140Z,18.56
2023-08-26T23:04:41.347Z,18.58
2023-08-26T23:07:08.714Z,18.57
2023-08-26T23:09:35.538Z,18.53
2023-08-26T23:12:02.399Z,18.49
2023-08-26T23:14:28.972Z,18.47
2023-08-26T23:16:55.765Z,18.46
2023-08-26T23:19:22.691Z,18.46
2023-08-26T23:21:53.306Z,18.44
2023-08-26T23:24:20.134Z,18.40
2023-08-26T23:26:46.793Z,18.39
2023-08-26T23:29:14.171Z,18.40
2023-08-26T23:31:40.757Z,18.32
2023-08-26T23:34:17.836Z,18.38
2023-08-26T23:36:46.754Z,18.36
2023-08-26T23:39:13.387Z,18.39
2023-08-26T23:41:40.136Z,18.37
2023-08-26T23:44:06.825Z,18.34
2023-08-26T23:46:33.308Z,18.34
2023-08-26T23:48:59.974Z,18.31
2023-08-26T23:51:26.751Z,18.23
2023-08-26T23:53:53.494Z,18.27
2023-08-26T23:56:20.378Z,18.27
2023-08-26T23:58:46.961Z,18.23
